Nibulon 1 — UUAS4 — position and weather

sailwx.info

Track history (hours):
 
Tides and Currents Weather Stations Pressure Air Temp Water Temp Dewpoint Dewpoint Depression Visibility Wind Speed Wind Dir Waves Ship Positions

Nibulon 1

Last reported at 2014-Dec-06 06:33 UTC. Time now 2014-Dec-21 23:59 UTC.
Position N 46°57' E 031°59'.
Warning: this ship's position is 15 days out of date.

Length 38 m; draft 2.6 m.

Type: Tug. MMSI: 272641000.

Date/timePositionNaut miles runAvg speedWind from/ knotsBaromVisibWave heightAir tempDewpointWater temp
2014-Dec-06 06:33N 46°57' E 031°59'0 0.0
2014-Dec-06 05:33N 46°57' E 031°59'0 0.0
2014-Dec-06 04:33N 46°57' E 031°59'0 0.0
2014-Dec-06 03:33N 46°57' E 031°59'0 0.0
2014-Dec-06 02:33N 46°57' E 031°59'0 0.0
2014-Dec-06 01:33N 46°57' E 031°59'0 0.0
2014-Dec-06 00:33N 46°57' E 031°59'0 0.0
2014-Dec-05 23:33N 46°57' E 031°59'0 0.0
2014-Dec-05 22:33N 46°57' E 031°59'0 0.0
2014-Dec-05 21:33N 46°57' E 031°59'0 0.0
2014-Dec-05 20:33N 46°57' E 031°59'0 0.0
2014-Dec-05 19:33N 46°57' E 031°59'0 0.0
2014-Dec-05 18:33N 46°57' E 031°59'0 0.0
2014-Dec-05 17:33N 46°57' E 031°59'0 0.0
2014-Dec-05 16:33N 46°57' E 031°59'0 0.0
2014-Dec-05 15:33N 46°57' E 031°59'0 0.0
2014-Dec-05 14:33N 46°57' E 031°59'0 0.0
2014-Dec-05 13:33N 46°57' E 031°59'0 0.0
2014-Dec-05 12:33N 46°57' E 031°59'0 0.0
2014-Dec-05 11:33N 46°57' E 031°59'0 0.0
2014-Dec-05 10:33N 46°57' E 031°59'0 0.0
2014-Dec-05 09:33N 46°57' E 031°59'0 0.0
2014-Dec-05 08:33N 46°57' E 031°59'0 0.0
2014-Dec-05 07:33N 46°57' E 031°59'0 0.0
2014-Dec-05 06:33N 46°57' E 031°59'0 0.0
2014-Dec-05 05:33N 46°57' E 031°59'0 0.0
2014-Dec-05 04:33N 46°57' E 031°59'0 0.0
2014-Dec-05 03:33N 46°57' E 031°59'0 0.0
2014-Dec-05 02:33N 46°57' E 031°59'0 0.0
2014-Dec-05 01:33N 46°57' E 031°59'0 0.0
2014-Dec-05 00:33N 46°57' E 031°59'0 0.0
2014-Dec-04 23:33N 46°57' E 031°59'0 0.0
2014-Dec-04 22:33N 46°57' E 031°59'0 0.0
2014-Dec-04 21:10N 46°57' E 031°59'0 0.0
2014-Dec-04 20:33N 46°57' E 031°59'0 0.0
2014-Dec-04 19:33N 46°57' E 031°59'0 0.0
2014-Dec-04 18:33N 46°57' E 031°59'0 0.0
2014-Dec-04 17:33N 46°57' E 031°59'0 0.0
2014-Dec-04 16:33N 46°57' E 031°59'0 0.0
2014-Dec-04 15:33N 46°57' E 031°59'0 0.0
2014-Dec-04 14:33N 46°57' E 031°59'0 0.0
2014-Dec-04 13:33N 46°57' E 031°59'0 0.0
2014-Dec-04 12:33N 46°57' E 031°59'0 0.5
2014-Dec-04 11:33N 46°57' E 031°59'1 1.5
2014-Dec-04 10:33N 46°56' E 032°01'3 3.1
2014-Dec-04 09:33N 46°53' E 031°60'3 3.4
2014-Dec-04 08:33N 46°50' E 031°56'3 3.5
2014-Dec-04 07:33N 46°48' E 031°53'3 3.5
2014-Dec-04 06:33N 46°44' E 031°55'3 3.3
2014-Dec-04 05:33N 46°41' E 031°56'4 3.5
2014-Dec-04 04:28N 46°38' E 031°58'3 3.3
2014-Dec-04 03:33N 46°35' E 032°01'4 3.5
2014-Dec-04 02:30N 46°33' E 032°04'4 3.5
2014-Dec-04 01:29N 46°32' E 032°09'4 3.7
2014-Dec-04 00:22N 46°33' E 032°15'  
2014-Nov-30 00:33N 46°32' E 032°08'6 5.5
2014-Nov-29 23:33N 46°33' E 032°00'6 6.0
2014-Nov-29 22:33N 46°35' E 031°52'6 5.7
2014-Nov-29 21:33N 46°35' E 031°44'6 5.6
2014-Nov-29 20:33N 46°35' E 031°36'3 0.1
2014-Nov-29 02:16N 46°35' E 031°32'4 4.2
2014-Nov-29 01:20N 46°35' E 031°38'3 4.0
2014-Nov-29 00:33N 46°35' E 031°42'4 4.0
2014-Nov-28 23:33N 46°36' E 031°48'4 3.8
2014-Nov-28 22:33N 46°34' E 031°53'4 3.8
2014-Nov-28 21:33N 46°33' E 031°58'4 3.7
2014-Nov-28 20:33N 46°32' E 032°03'  
Track history (hours):
 
Tides and Currents Weather Stations Pressure Air Temp Water Temp Dewpoint Dewpoint Depression Visibility Wind Speed Wind Dir Waves Ship Positions

Nibulon 1

Last reported at 2014-Dec-06 06:33 UTC. Time now 2014-Dec-21 23:59 UTC.
Position N 46°57' E 031°59'.
Warning: this ship's position is 15 days out of date.

Length 38 m; draft 2.6 m.

Type: Tug. MMSI: 272641000.

Date/timePositionNaut miles runAvg speedWind from/ knotsBaromVisibWave heightAir tempDewpointWater temp
2014-Dec-06 06:33N 46°57' E 031°59'0 0.0
2014-Dec-06 05:33N 46°57' E 031°59'0 0.0
2014-Dec-06 04:33N 46°57' E 031°59'0 0.0
2014-Dec-06 03:33N 46°57' E 031°59'0 0.0
2014-Dec-06 02:33N 46°57' E 031°59'0 0.0
2014-Dec-06 01:33N 46°57' E 031°59'0 0.0
2014-Dec-06 00:33N 46°57' E 031°59'0 0.0
2014-Dec-05 23:33N 46°57' E 031°59'0 0.0
2014-Dec-05 22:33N 46°57' E 031°59'0 0.0
2014-Dec-05 21:33N 46°57' E 031°59'0 0.0
2014-Dec-05 20:33N 46°57' E 031°59'0 0.0
2014-Dec-05 19:33N 46°57' E 031°59'0 0.0
2014-Dec-05 18:33N 46°57' E 031°59'0 0.0
2014-Dec-05 17:33N 46°57' E 031°59'0 0.0
2014-Dec-05 16:33N 46°57' E 031°59'0 0.0
2014-Dec-05 15:33N 46°57' E 031°59'0 0.0
2014-Dec-05 14:33N 46°57' E 031°59'0 0.0
2014-Dec-05 13:33N 46°57' E 031°59'0 0.0
2014-Dec-05 12:33N 46°57' E 031°59'0 0.0
2014-Dec-05 11:33N 46°57' E 031°59'0 0.0
2014-Dec-05 10:33N 46°57' E 031°59'0 0.0
2014-Dec-05 09:33N 46°57' E 031°59'0 0.0
2014-Dec-05 08:33N 46°57' E 031°59'0 0.0
2014-Dec-05 07:33N 46°57' E 031°59'0 0.0
2014-Dec-05 06:33N 46°57' E 031°59'0 0.0
2014-Dec-05 05:33N 46°57' E 031°59'0 0.0
2014-Dec-05 04:33N 46°57' E 031°59'0 0.0
2014-Dec-05 03:33N 46°57' E 031°59'0 0.0
2014-Dec-05 02:33N 46°57' E 031°59'0 0.0
2014-Dec-05 01:33N 46°57' E 031°59'0 0.0
2014-Dec-05 00:33N 46°57' E 031°59'0 0.0
2014-Dec-04 23:33N 46°57' E 031°59'0 0.0
2014-Dec-04 22:33N 46°57' E 031°59'0 0.0
2014-Dec-04 21:10N 46°57' E 031°59'0 0.0
2014-Dec-04 20:33N 46°57' E 031°59'0 0.0
2014-Dec-04 19:33N 46°57' E 031°59'0 0.0
2014-Dec-04 18:33N 46°57' E 031°59'0 0.0
2014-Dec-04 17:33N 46°57' E 031°59'0 0.0
2014-Dec-04 16:33N 46°57' E 031°59'0 0.0
2014-Dec-04 15:33N 46°57' E 031°59'0 0.0
2014-Dec-04 14:33N 46°57' E 031°59'0 0.0
2014-Dec-04 13:33N 46°57' E 031°59'0 0.0
2014-Dec-04 12:33N 46°57' E 031°59'0 0.5
2014-Dec-04 11:33N 46°57' E 031°59'1 1.5
2014-Dec-04 10:33N 46°56' E 032°01'3 3.1
2014-Dec-04 09:33N 46°53' E 031°60'3 3.4
2014-Dec-04 08:33N 46°50' E 031°56'3 3.5
2014-Dec-04 07:33N 46°48' E 031°53'3 3.5
2014-Dec-04 06:33N 46°44' E 031°55'3 3.3
2014-Dec-04 05:33N 46°41' E 031°56'4 3.5
2014-Dec-04 04:28N 46°38' E 031°58'3 3.3
2014-Dec-04 03:33N 46°35' E 032°01'4 3.5
2014-Dec-04 02:30N 46°33' E 032°04'4 3.5
2014-Dec-04 01:29N 46°32' E 032°09'4 3.7
2014-Dec-04 00:22N 46°33' E 032°15'  
2014-Nov-30 00:33N 46°32' E 032°08'6 5.5
2014-Nov-29 23:33N 46°33' E 032°00'6 6.0
2014-Nov-29 22:33N 46°35' E 031°52'6 5.7
2014-Nov-29 21:33N 46°35' E 031°44'6 5.6
2014-Nov-29 20:33N 46°35' E 031°36'3 0.1
2014-Nov-29 02:16N 46°35' E 031°32'4 4.2
2014-Nov-29 01:20N 46°35' E 031°38'3 4.0
2014-Nov-29 00:33N 46°35' E 031°42'4 4.0
2014-Nov-28 23:33N 46°36' E 031°48'4 3.8
2014-Nov-28 22:33N 46°34' E 031°53'4 3.8
2014-Nov-28 21:33N 46°33' E 031°58'4 3.7
2014-Nov-28 20:33N 46°32' E 032°03'  

Dump ship's entire track history